createdAt,value
2019-05-03T00:01:56.703Z,20.90
2019-05-03T00:04:31.585Z,18.62
2019-05-03T00:07:05.517Z,18.98
2019-05-03T00:09:39.281Z,19.45
2019-05-03T00:12:13.193Z,19.25
2019-05-03T00:14:49.238Z,21.05
2019-05-03T00:17:23.153Z,18.37
2019-05-03T00:19:57.019Z,17.00
2019-05-03T00:22:32.368Z,19.07
2019-05-03T00:25:08.427Z,17.77
2019-05-03T00:27:42.764Z,17.42
2019-05-03T00:30:16.705Z,18.25
2019-05-03T00:32:52.178Z,18.50
2019-05-03T00:35:35.636Z,18.82
2019-05-03T00:38:12.289Z,17.48
2019-05-03T00:40:46.090Z,18.10
2019-05-03T00:43:19.827Z,16.67
2019-05-03T00:45:53.595Z,17.02
2019-05-03T00:48:27.366Z,14.85
2019-05-03T00:51:02.408Z,13.95
2019-05-03T00:53:36.236Z,14.93
2019-05-03T00:56:12.135Z,14.85
2019-05-03T00:58:55.657Z,15.10
2019-05-03T01:01:29.418Z,12.95
2019-05-03T01:04:03.190Z,15.60
2019-05-03T01:06:36.957Z,13.38
2019-05-03T01:09:17.460Z,14.73
2019-05-03T01:11:52.476Z,12.75
2019-05-03T01:14:26.154Z,13.13
2019-05-03T01:16:59.826Z,15.60
2019-05-03T01:19:34.349Z,14.40
2019-05-03T01:22:08.314Z,12.13
2019-05-03T01:24:42.804Z,11.15
2019-05-03T01:27:16.834Z,13.10
2019-05-03T01:29:51.929Z,11.95
2019-05-03T01:32:26.998Z,13.08
2019-05-03T01:35:03.201Z,13.30
2019-05-03T01:37:38.368Z,12.47
2019-05-03T01:40:12.638Z,12.82
2019-05-03T01:42:46.479Z,11.90
2019-05-03T01:45:20.233Z,13.68
2019-05-03T01:48:09.766Z,10.40
2019-05-03T01:50:52.169Z,11.38
2019-05-03T01:53:27.409Z,10.60
2019-05-03T01:56:01.168Z,12.15
2019-05-03T01:58:34.866Z,11.20
2019-05-03T02:01:18.939Z,9.65
2019-05-03T02:04:06.008Z,10.70
2019-05-03T02:06:39.672Z,10.55
2019-05-03T02:09:13.430Z,10.70
2019-05-03T02:11:47.276Z,10.45
2019-05-03T02:14:22.293Z,9.33
2019-05-03T02:16:55.970Z,10.75
2019-05-03T02:19:29.945Z,10.28
2019-05-03T02:22:03.787Z,10.15
2019-05-03T02:24:37.660Z,9.53
2019-05-03T02:27:12.764Z,9.10
2019-05-03T02:29:46.594Z,9.03
2019-05-03T02:32:23.200Z,10.30
2019-05-03T02:34:57.276Z,9.80
2019-05-03T02:37:32.990Z,10.82
2019-05-03T02:40:06.525Z,9.38
2019-05-03T02:42:40.551Z,8.80
2019-05-03T02:45:20.878Z,9.65
2019-05-03T02:48:06.034Z,8.80
2019-05-03T02:50:39.948Z,9.50
2019-05-03T02:53:15.250Z,9.15
2019-05-03T02:55:49.204Z,9.08
2019-05-03T02:58:25.366Z,8.53
2019-05-03T03:01:00.923Z,7.83
2019-05-03T03:03:36.714Z,9.13
2019-05-03T03:06:10.630Z,8.38
2019-05-03T03:08:45.512Z,8.30
2019-05-03T03:11:19.737Z,8.63
2019-05-03T03:13:55.248Z,9.95
2019-05-03T03:16:29.177Z,10.28
2019-05-03T03:19:06.635Z,9.88
2019-05-03T03:21:42.639Z,8.68
2019-05-03T03:24:18.772Z,8.38
2019-05-03T03:26:52.610Z,7.75
2019-05-03T03:29:28.593Z,8.45
2019-05-03T03:32:21.080Z,9.53
2019-05-03T03:35:11.990Z,9.53
2019-05-03T03:37:46.023Z,9.23
2019-05-03T03:40:19.598Z,8.68
2019-05-03T03:42:55.593Z,8.08
2019-05-03T03:45:28.910Z,8.10
2019-05-03T03:48:05.212Z,8.30
2019-05-03T03:50:38.369Z,9.30
2019-05-03T03:53:15.428Z,8.40
2019-05-03T03:55:49.969Z,7.90
2019-05-03T03:58:26.733Z,8.08
2019-05-03T04:00:59.076Z,8.60
2019-05-03T04:03:32.968Z,7.83
2019-05-03T04:06:06.825Z,7.42
2019-05-03T04:08:40.540Z,8.53
2019-05-03T04:11:15.608Z,9.53
2019-05-03T04:13:49.689Z,8.85
2019-05-03T04:16:31.866Z,8.60
2019-05-03T04:19:10.733Z,9.93
2019-05-03T04:21:45.338Z,7.47
2019-05-03T04:24:19.170Z,8.35
2019-05-03T04:27:15.511Z,7.75
2019-05-03T04:29:40.988Z,7.62
2019-05-03T04:32:15.645Z,8.33
2019-05-03T04:34:49.698Z,8.70
2019-05-03T04:37:26.296Z,8.65
2019-05-03T04:39:58.971Z,8.30
2019-05-03T04:42:35.478Z,8.28
2019-05-03T04:45:08.226Z,9.53
2019-05-03T04:47:42.553Z,8.08
2019-05-03T04:50:16.712Z,7.80
2019-05-03T04:52:50.667Z,7.78
2019-05-03T04:55:26.852Z,8.73
2019-05-03T04:58:00.829Z,6.85
2019-05-03T05:00:35.923Z,7.33
2019-05-03T05:03:09.880Z,7.90
2019-05-03T05:05:45.300Z,8.65
2019-05-03T05:08:19.299Z,7.72
2019-05-03T05:10:55.821Z,7.33
2019-05-03T05:13:28.630Z,8.55
2019-05-03T05:16:02.515Z,7.37
2019-05-03T05:18:45.728Z,6.95
2019-05-03T05:21:44.815Z,8.28
2019-05-03T05:24:18.635Z,7.45
2019-05-03T05:27:01.763Z,8.18
2019-05-03T05:29:37.272Z,6.80
2019-05-03T05:32:10.970Z,7.17
2019-05-03T05:34:46.088Z,7.00
2019-05-03T05:37:20.552Z,7.58
2019-05-03T05:39:55.056Z,6.28
2019-05-03T05:42:28.886Z,7.03
2019-05-03T05:45:04.831Z,7.55
2019-05-03T05:47:54.789Z,7.25
2019-05-03T05:50:39.878Z,6.55
2019-05-03T05:53:15.261Z,6.78
2019-05-03T05:55:58.969Z,7.45
2019-05-03T05:58:46.795Z,8.35
2019-05-03T06:01:27.408Z,8.20
2019-05-03T06:04:01.064Z,8.60
2019-05-03T06:06:52.410Z,7.05
2019-05-03T06:09:41.668Z,7.10
2019-05-03T06:12:30.865Z,6.90
2019-05-03T06:15:09.792Z,8.05
2019-05-03T06:17:51.614Z,9.88
2019-05-03T06:20:45.404Z,8.03
2019-05-03T06:23:36.591Z,9.40
2019-05-03T06:26:31.830Z,7.40
2019-05-03T06:29:06.056Z,10.93
2019-05-03T06:31:58.802Z,14.30
2019-05-03T06:34:35.328Z,8.50
2019-05-03T06:37:12.453Z,11.83
2019-05-03T06:39:46.294Z,7.40
2019-05-03T06:42:22.833Z,8.35
2019-05-03T06:44:59.692Z,11.53
2019-05-03T06:47:30.628Z,11.90
2019-05-03T06:50:05.493Z,11.28
2019-05-03T06:52:41.012Z,13.30
2019-05-03T06:55:14.738Z,8.03
2019-05-03T06:57:49.844Z,7.03
2019-05-03T07:00:45.385Z,10.28
2019-05-03T07:03:28.676Z,7.92
2019-05-03T07:06:40.585Z,10.43
2019-05-03T07:09:31.912Z,7.60
2019-05-03T07:12:05.845Z,6.55
2019-05-03T07:14:39.657Z,7.60
2019-05-03T07:17:14.502Z,7.10
2019-05-03T07:19:48.218Z,7.12
2019-05-03T07:22:24.433Z,6.97
2019-05-03T07:24:58.379Z,10.53
2019-05-03T07:27:32.398Z,7.83
2019-05-03T07:30:06.259Z,7.17
2019-05-03T07:32:41.907Z,7.85
2019-05-03T07:35:15.853Z,9.98
2019-05-03T07:37:50.041Z,8.85
2019-05-03T07:40:25.252Z,7.17
2019-05-03T07:43:01.004Z,7.17
2019-05-03T07:45:35.493Z,9.25
2019-05-03T07:48:11.205Z,25.62
2019-05-03T07:50:45.163Z,49.63
2019-05-03T07:53:19.214Z,44.88
2019-05-03T07:56:06.867Z,50.05
2019-05-03T07:58:42.352Z,44.05
2019-05-03T08:01:27.345Z,49.05
2019-05-03T08:04:01.098Z,34.83
2019-05-03T08:06:35.078Z,36.73
2019-05-03T08:09:11.759Z,29.23
2019-05-03T08:11:46.673Z,22.55
2019-05-03T08:14:20.683Z,20.50
2019-05-03T08:16:55.782Z,22.75
2019-05-03T08:19:29.705Z,15.85
2019-05-03T08:22:04.772Z,17.23
2019-05-03T08:24:39.148Z,20.45
2019-05-03T08:27:14.837Z,16.77
2019-05-03T08:29:48.840Z,19.23
2019-05-03T08:32:31.833Z,22.10
2019-05-03T08:35:28.225Z,17.92
2019-05-03T08:38:04.941Z,13.18
2019-05-03T08:40:45.546Z,16.35
2019-05-03T08:43:19.449Z,17.42
2019-05-03T08:45:55.370Z,13.45
2019-05-03T08:48:29.678Z,14.78
2019-05-03T08:51:04.589Z,18.10
2019-05-03T08:53:38.825Z,14.98
2019-05-03T08:56:12.885Z,14.28
2019-05-03T08:58:47.354Z,15.05
2019-05-03T09:01:21.922Z,13.48
2019-05-03T09:03:55.966Z,11.75
2019-05-03T09:06:29.923Z,14.18
2019-05-03T09:09:06.490Z,14.38
2019-05-03T09:11:40.424Z,16.23
2019-05-03T09:14:15.035Z,17.55
2019-05-03T09:16:48.836Z,13.83
2019-05-03T09:19:25.208Z,12.78
2019-05-03T09:21:58.427Z,16.93
2019-05-03T09:24:32.351Z,12.35
2019-05-03T09:27:06.258Z,12.53
2019-05-03T09:29:43.417Z,13.15
2019-05-03T09:32:17.403Z,13.78
2019-05-03T09:34:52.544Z,13.25
2019-05-03T09:37:26.196Z,12.80
2019-05-03T09:39:59.925Z,12.70
2019-05-03T09:42:35.229Z,14.68
2019-05-03T09:45:09.955Z,13.88
2019-05-03T09:47:44.805Z,13.90
2019-05-03T09:50:18.854Z,13.85
2019-05-03T09:52:55.468Z,14.65
2019-05-03T09:55:35.365Z,14.98
2019-05-03T09:58:09.080Z,14.47
2019-05-03T10:00:44.638Z,16.60
2019-05-03T10:03:20.188Z,15.00
2019-05-03T10:05:55.523Z,12.20
2019-05-03T10:08:29.261Z,9.90
2019-05-03T10:11:15.649Z,9.33
2019-05-03T10:13:49.272Z,13.22
2019-05-03T10:16:24.919Z,11.33
2019-05-03T10:18:58.904Z,11.22
2019-05-03T10:21:35.539Z,17.50
2019-05-03T10:24:09.783Z,15.08
2019-05-03T10:26:45.416Z,25.05
2019-05-03T10:29:19.083Z,27.95
2019-05-03T10:32:00.140Z,21.55
2019-05-03T10:34:35.678Z,22.02
2019-05-03T10:37:12.284Z,19.67
2019-05-03T10:39:46.237Z,19.12
2019-05-03T10:42:19.983Z,19.60
2019-05-03T10:44:55.527Z,18.57
2019-05-03T10:47:29.422Z,19.42
2019-05-03T10:50:04.711Z,21.12
2019-05-03T10:52:44.587Z,23.10
2019-05-03T10:55:18.604Z,21.12
2019-05-03T10:58:09.530Z,31.82
2019-05-03T11:00:52.268Z,32.25
2019-05-03T11:03:20.594Z,44.67
2019-05-03T11:05:54.818Z,33.48
2019-05-03T11:08:28.792Z,32.60
2019-05-03T11:11:02.647Z,24.07
2019-05-03T11:13:36.400Z,22.42
2019-05-03T11:16:10.202Z,25.85
2019-05-03T11:18:45.578Z,23.15
2019-05-03T11:21:28.233Z,18.32
2019-05-03T11:23:55.079Z,17.00
2019-05-03T11:26:28.805Z,16.48
2019-05-03T11:29:05.005Z,15.48
2019-05-03T11:31:57.776Z,14.07
2019-05-03T11:34:38.056Z,12.33
2019-05-03T11:37:34.601Z,13.03
2019-05-03T11:40:08.848Z,14.05
2019-05-03T11:42:44.654Z,13.40
2019-05-03T11:45:18.273Z,11.15
2019-05-03T11:47:52.262Z,12.13
2019-05-03T11:50:25.983Z,11.75
2019-05-03T11:52:59.884Z,10.03
2019-05-03T11:55:35.217Z,11.55
2019-05-03T11:58:20.400Z,8.68
2019-05-03T12:01:14.874Z,9.15
2019-05-03T12:03:45.123Z,7.83
2019-05-03T12:06:19.653Z,9.73
2019-05-03T12:08:55.249Z,10.85
2019-05-03T12:11:30.800Z,10.05
2019-05-03T12:14:15.399Z,9.48
2019-05-03T12:17:18.109Z,7.92
2019-05-03T12:19:41.797Z,7.40
2019-05-03T12:22:16.729Z,5.08
2019-05-03T12:24:51.650Z,7.42
2019-05-03T12:27:25.617Z,7.00
2019-05-03T12:29:59.493Z,6.83
2019-05-03T12:32:34.557Z,4.10
2019-05-03T12:35:08.548Z,5.17
2019-05-03T12:37:42.360Z,4.83
2019-05-03T12:40:15.982Z,6.03
2019-05-03T12:42:49.848Z,6.47
2019-05-03T12:45:24.785Z,4.92
2019-05-03T12:47:58.696Z,5.08
2019-05-03T12:50:34.633Z,5.03
2019-05-03T12:53:08.364Z,3.33
2019-05-03T12:55:42.747Z,4.12
2019-05-03T12:58:17.345Z,3.22
2019-05-03T13:01:08.203Z,4.17
2019-05-03T13:03:49.806Z,5.22
2019-05-03T13:06:25.383Z,4.90
2019-05-03T13:08:59.023Z,4.65
2019-05-03T13:11:36.540Z,4.17
2019-05-03T13:14:10.196Z,2.85
2019-05-03T13:16:44.525Z,4.37
2019-05-03T13:19:18.455Z,2.60
2019-05-03T13:21:55.553Z,4.30
2019-05-03T13:24:29.372Z,4.12
2019-05-03T13:27:03.013Z,2.90
2019-05-03T13:29:36.780Z,7.17
2019-05-03T13:32:10.704Z,3.00
2019-05-03T13:34:44.791Z,2.22
2019-05-03T13:37:18.616Z,2.20
2019-05-03T13:39:52.474Z,2.87
2019-05-03T13:42:26.364Z,2.10
2019-05-03T13:45:00.116Z,2.80
2019-05-03T13:47:35.432Z,2.27
2019-05-03T13:50:09.514Z,2.98
2019-05-03T13:52:45.139Z,2.33
2019-05-03T13:55:18.649Z,2.20
2019-05-03T13:57:54.705Z,1.80
2019-05-03T14:00:28.123Z,3.85
2019-05-03T14:03:04.425Z,1.80
2019-05-03T14:05:38.041Z,1.98
2019-05-03T14:08:12.084Z,1.80
2019-05-03T14:10:45.879Z,1.47
2019-05-03T14:13:19.712Z,2.02
2019-05-03T14:15:54.809Z,2.58
2019-05-03T14:18:28.758Z,1.92
2019-05-03T14:21:10.122Z,1.67
2019-05-03T14:24:01.486Z,3.72
2019-05-03T14:26:35.335Z,2.02
2019-05-03T14:29:10.461Z,1.85
2019-05-03T14:31:45.461Z,2.58
2019-05-03T14:34:19.261Z,2.33
2019-05-03T14:36:55.295Z,2.77
2019-05-03T14:39:28.522Z,3.83
2019-05-03T14:42:02.334Z,2.52
2019-05-03T14:44:36.163Z,3.70
2019-05-03T14:47:09.798Z,5.33
2019-05-03T14:49:43.521Z,3.08
2019-05-03T14:52:17.722Z,3.17
2019-05-03T14:54:53.546Z,4.22
2019-05-03T14:57:31.726Z,4.25
2019-05-03T15:00:30.691Z,3.75
2019-05-03T15:03:16.335Z,3.05
2019-05-03T15:05:50.048Z,4.00
2019-05-03T15:08:25.628Z,5.30
2019-05-03T15:10:59.271Z,2.55
2019-05-03T15:13:34.863Z,7.58
2019-05-03T15:16:08.500Z,2.60
2019-05-03T15:18:42.296Z,3.10
2019-05-03T15:21:16.176Z,3.17
2019-05-03T15:23:51.462Z,4.62
2019-05-03T15:26:25.226Z,2.98
2019-05-03T15:28:59.008Z,2.65
2019-05-03T15:31:35.192Z,2.90
2019-05-03T15:34:08.554Z,2.65
2019-05-03T15:36:42.355Z,3.50
2019-05-03T15:39:16.964Z,5.03
2019-05-03T15:41:50.632Z,3.52
2019-05-03T15:44:45.030Z,3.08
2019-05-03T15:47:32.803Z,2.75
2019-05-03T15:50:06.648Z,3.08
2019-05-03T15:52:40.320Z,3.87
2019-05-03T15:55:15.217Z,4.92
2019-05-03T15:57:49.127Z,2.58
2019-05-03T16:00:24.467Z,2.70
2019-05-03T16:03:08.131Z,4.20
2019-05-03T16:05:35.488Z,3.17
2019-05-03T16:08:09.384Z,4.65
2019-05-03T16:10:43.098Z,4.15
2019-05-03T16:13:16.900Z,3.30
2019-05-03T16:15:50.666Z,5.00
2019-05-03T16:18:24.666Z,5.55
2019-05-03T16:20:58.459Z,3.00
2019-05-03T16:23:32.471Z,3.55
2019-05-03T16:26:06.343Z,3.22
2019-05-03T16:28:55.238Z,2.90
2019-05-03T16:31:29.208Z,2.95
2019-05-03T16:34:04.329Z,2.92
2019-05-03T16:36:38.176Z,3.90
2019-05-03T16:39:12.130Z,5.78
2019-05-03T16:41:46.032Z,3.60
2019-05-03T16:44:19.766Z,3.77
2019-05-03T16:46:55.367Z,3.42
2019-05-03T16:49:29.419Z,5.85
2019-05-03T16:52:03.257Z,5.78
2019-05-03T16:54:37.221Z,6.30
2019-05-03T16:57:10.938Z,7.58
2019-05-03T16:59:44.572Z,25.55
2019-05-03T17:02:18.562Z,21.97
2019-05-03T17:05:01.850Z,32.65
2019-05-03T17:07:40.451Z,30.82
2019-05-03T17:10:36.405Z,28.50
2019-05-03T17:13:10.190Z,21.95
2019-05-03T17:15:43.958Z,21.52
2019-05-03T17:18:17.862Z,25.50
2019-05-03T17:20:51.966Z,22.52
2019-05-03T17:23:25.808Z,22.82
2019-05-03T17:25:59.526Z,23.05
2019-05-03T17:28:35.208Z,19.17
2019-05-03T17:31:08.759Z,18.27
2019-05-03T17:33:52.995Z,23.10
2019-05-03T17:36:18.460Z,20.72
2019-05-03T17:38:55.131Z,19.30
2019-05-03T17:41:47.690Z,16.70
2019-05-03T17:44:25.346Z,17.52
2019-05-03T17:46:59.238Z,15.88
2019-05-03T17:49:34.756Z,18.40
2019-05-03T17:52:28.236Z,15.25
2019-05-03T17:55:24.456Z,15.53
2019-05-03T17:58:06.440Z,17.92
2019-05-03T18:01:02.021Z,21.82
2019-05-03T18:03:39.542Z,15.80
2019-05-03T18:06:20.213Z,12.15
2019-05-03T18:09:14.795Z,14.05
2019-05-03T18:11:53.587Z,13.10
2019-05-03T18:14:27.520Z,13.98
2019-05-03T18:17:01.180Z,11.08
2019-05-03T18:19:34.800Z,13.18
2019-05-03T18:22:08.647Z,21.07
2019-05-03T18:24:42.472Z,18.32
2019-05-03T18:27:16.322Z,14.58
2019-05-03T18:29:50.151Z,14.65
2019-05-03T18:32:25.180Z,11.83
2019-05-03T18:34:59.223Z,16.45
2019-05-03T18:37:34.849Z,14.33
2019-05-03T18:40:08.778Z,10.88
2019-05-03T18:42:47.340Z,15.10
2019-05-03T18:45:28.362Z,15.15
2019-05-03T18:48:02.471Z,14.18
2019-05-03T18:50:36.150Z,15.18
2019-05-03T18:53:09.789Z,13.13
2019-05-03T18:55:44.443Z,14.55
2019-05-03T18:58:18.417Z,16.07
2019-05-03T19:00:54.749Z,14.75
2019-05-03T19:03:28.200Z,14.35
2019-05-03T19:06:05.350Z,15.95
2019-05-03T19:08:56.553Z,14.87
2019-05-03T19:11:40.762Z,14.33
2019-05-03T19:14:16.418Z,13.15
2019-05-03T19:17:00.452Z,13.62
2019-05-03T19:19:37.097Z,14.10
2019-05-03T19:22:10.954Z,12.33
2019-05-03T19:24:44.752Z,14.07
2019-05-03T19:27:18.675Z,10.28
2019-05-03T19:29:52.467Z,14.85
2019-05-03T19:32:28.333Z,12.88
2019-05-03T19:35:05.018Z,10.03
2019-05-03T19:37:39.037Z,13.70
2019-05-03T19:40:13.125Z,11.68
2019-05-03T19:42:47.058Z,15.63
2019-05-03T19:45:21.018Z,10.70
2019-05-03T19:47:55.292Z,11.78
2019-05-03T19:50:29.281Z,13.90
2019-05-03T19:53:08.002Z,12.03
2019-05-03T19:55:41.874Z,11.25
2019-05-03T19:58:15.994Z,11.78
2019-05-03T20:01:08.396Z,13.60
2019-05-03T20:03:48.849Z,13.30
2019-05-03T20:06:35.313Z,10.90
2019-05-03T20:09:15.103Z,12.23
2019-05-03T20:11:49.139Z,11.57
2019-05-03T20:14:23.098Z,12.55
2019-05-03T20:16:58.234Z,12.78
2019-05-03T20:19:32.068Z,14.50
2019-05-03T20:22:05.971Z,11.48
2019-05-03T20:24:39.795Z,12.58
2019-05-03T20:27:15.152Z,11.22
2019-05-03T20:29:49.164Z,13.80
2019-05-03T20:32:25.063Z,11.97
2019-05-03T20:35:10.169Z,12.98
2019-05-03T20:37:34.322Z,11.55
2019-05-03T20:40:08.439Z,13.20
2019-05-03T20:43:01.623Z,12.47
2019-05-03T20:45:54.823Z,10.45
2019-05-03T20:48:28.682Z,10.98
2019-05-03T20:51:02.429Z,12.05
2019-05-03T20:53:36.443Z,11.43
2019-05-03T20:56:10.231Z,11.70
2019-05-03T20:58:44.674Z,12.53
2019-05-03T21:01:18.560Z,10.18
2019-05-03T21:03:54.237Z,11.70
2019-05-03T21:06:35.441Z,10.85
2019-05-03T21:09:04.737Z,11.70
2019-05-03T21:11:38.847Z,11.40
2019-05-03T21:14:15.262Z,11.57
2019-05-03T21:17:05.932Z,11.75
2019-05-03T21:19:56.639Z,13.45
2019-05-03T21:22:35.503Z,10.48
2019-05-03T21:25:20.312Z,11.08
2019-05-03T21:27:55.543Z,12.65
2019-05-03T21:30:29.349Z,12.58
2019-05-03T21:33:03.014Z,13.13
2019-05-03T21:35:41.430Z,12.10
2019-05-03T21:38:12.437Z,11.15
2019-05-03T21:40:46.615Z,11.00
2019-05-03T21:43:20.427Z,10.65
2019-05-03T21:46:01.093Z,12.00
2019-05-03T21:48:55.840Z,11.12
2019-05-03T21:51:30.291Z,12.05
2019-05-03T21:54:06.600Z,12.15
2019-05-03T21:56:39.423Z,10.53
2019-05-03T21:59:13.130Z,10.80
2019-05-03T22:01:48.262Z,12.15
2019-05-03T22:04:22.180Z,12.53
2019-05-03T22:06:55.991Z,10.80
2019-05-03T22:09:29.876Z,10.55
2019-05-03T22:12:05.223Z,10.50
2019-05-03T22:14:47.214Z,12.33
2019-05-03T22:17:51.776Z,10.70
2019-05-03T22:20:40.490Z,10.55
2019-05-03T22:23:34.153Z,12.05
2019-05-03T22:26:08.650Z,11.20
2019-05-03T22:28:44.431Z,11.43
2019-05-03T22:31:18.374Z,13.22
2019-05-03T22:33:52.234Z,11.45
2019-05-03T22:36:26.116Z,11.22
2019-05-03T22:38:59.966Z,11.80
2019-05-03T22:41:34.735Z,9.60
2019-05-03T22:44:08.795Z,10.80
2019-05-03T22:46:44.628Z,8.65
2019-05-03T22:49:18.425Z,10.82
2019-05-03T22:51:54.290Z,9.13
2019-05-03T22:54:27.978Z,11.03
2019-05-03T22:57:01.919Z,10.60
2019-05-03T22:59:35.627Z,9.90
2019-05-03T23:02:09.383Z,12.18
2019-05-03T23:04:44.910Z,8.75
2019-05-03T23:07:20.776Z,9.73
2019-05-03T23:09:54.498Z,10.65
2019-05-03T23:12:28.234Z,10.28
2019-05-03T23:15:02.227Z,11.83
2019-05-03T23:17:35.840Z,10.80
2019-05-03T23:20:18.022Z,7.12
2019-05-03T23:22:52.026Z,10.08
2019-05-03T23:25:25.725Z,9.33
2019-05-03T23:27:59.596Z,10.95
2019-05-03T23:30:33.421Z,10.78
2019-05-03T23:33:07.183Z,8.98
2019-05-03T23:35:41.108Z,9.33
2019-05-03T23:38:15.132Z,8.58
2019-05-03T23:40:49.040Z,10.50
2019-05-03T23:43:25.040Z,9.75
2019-05-03T23:45:58.532Z,9.75
2019-05-03T23:48:32.154Z,10.20
2019-05-03T23:51:06.138Z,11.22
2019-05-03T23:53:39.858Z,9.35
2019-05-03T23:56:18.913Z,8.73
2019-05-03T23:58:55.021Z,9.95
